sensor_id;sensor_type;location;lat;lon;timestamp;temperature;humidity
14775;DHT22;7479;47.042;15.160;2022-08-26T05:50:46;19.00;99.90
14775;DHT22;7479;47.042;15.160;2022-08-26T05:55:41;19.10;99.90
14775;DHT22;7479;47.042;15.160;2022-08-26T06:00:36;19.40;99.90
14775;DHT22;7479;47.042;15.160;2022-08-26T06:05:37;19.70;99.90
14775;DHT22;7479;47.042;15.160;2022-08-26T06:10:32;19.90;99.90
14775;DHT22;7479;47.042;15.160;2022-08-26T06:15:26;20.20;99.90
14775;DHT22;7479;47.042;15.160;2022-08-26T06:20:19;20.30;99.90
14775;DHT22;7479;47.042;15.160;2022-08-26T06:46:08;21.30;99.90
14775;DHT22;7479;47.042;15.160;2022-08-26T06:51:06;21.30;99.90
14775;DHT22;7479;47.042;15.160;2022-08-26T06:56:02;21.50;99.90
14775;DHT22;7479;47.042;15.160;2022-08-26T07:00:57;21.80;99.90
14775;DHT22;7479;47.042;15.160;2022-08-26T07:06:02;21.90;99.90
14775;DHT22;7479;47.042;15.160;2022-08-26T07:10:58;22.10;99.90
14775;DHT22;7479;47.042;15.160;2022-08-26T07:15:56;22.30;99.90
14775;DHT22;7479;47.042;15.160;2022-08-26T07:20:54;22.40;99.90
14775;DHT22;7479;47.042;15.160;2022-08-26T07:25:49;22.60;99.90
14775;DHT22;7479;47.042;15.160;2022-08-26T07:30:42;22.80;99.90
14775;DHT22;7479;47.042;15.160;2022-08-26T07:35:36;22.90;99.90
14775;DHT22;7479;47.042;15.160;2022-08-26T07:40:31;23.10;99.90
14775;DHT22;7479;47.042;15.160;2022-08-26T07:45:26;23.40;99.90
14775;DHT22;7479;47.042;15.160;2022-08-26T07:50:20;23.50;99.90
14775;DHT22;7479;47.042;15.160;2022-08-26T07:55:34;23.70;99.90
14775;DHT22;7479;47.042;15.160;2022-08-26T08:00:30;23.90;99.90
14775;DHT22;7479;47.042;15.160;2022-08-26T08:05:25;24.10;99.90
14775;DHT22;7479;47.042;15.160;2022-08-26T08:10:25;24.20;99.90
14775;DHT22;7479;47.042;15.160;2022-08-26T08:15:23;24.40;99.90
14775;DHT22;7479;47.042;15.160;2022-08-26T08:20:21;24.50;99.90
14775;DHT22;7479;47.042;15.160;2022-08-26T08:26:04;24.70;99.90
14775;DHT22;7479;47.042;15.160;2022-08-26T08:30:59;25.00;99.90
14775;DHT22;7479;47.042;15.160;2022-08-26T08:35:55;25.10;99.90
14775;DHT22;7479;47.042;15.160;2022-08-26T08:40:49;25.30;99.90
14775;DHT22;7479;47.042;15.160;2022-08-26T08:45:47;25.50;99.90
14775;DHT22;7479;47.042;15.160;2022-08-26T08:50:43;25.70;99.90
14775;DHT22;7479;47.042;15.160;2022-08-26T08:56:00;25.90;99.90
14775;DHT22;7479;47.042;15.160;2022-08-26T09:00:59;26.10;99.90
14775;DHT22;7479;47.042;15.160;2022-08-26T09:05:56;26.30;99.90
14775;DHT22;7479;47.042;15.160;2022-08-26T09:10:55;26.40;99.90
14775;DHT22;7479;47.042;15.160;2022-08-26T09:16:02;26.70;99.90
14775;DHT22;7479;47.042;15.160;2022-08-26T09:20:59;26.80;99.90
14775;DHT22;7479;47.042;15.160;2022-08-26T09:25:55;27.10;99.90
14775;DHT22;7479;47.042;15.160;2022-08-26T09:31:01;27.40;99.90
14775;DHT22;7479;47.042;15.160;2022-08-26T09:36:18;27.80;99.90
14775;DHT22;7479;47.042;15.160;2022-08-26T09:41:22;28.10;99.90
14775;DHT22;7479;47.042;15.160;2022-08-26T09:46:27;28.50;98.00
14775;DHT22;7479;47.042;15.160;2022-08-26T09:51:27;28.80;98.20
14775;DHT22;7479;47.042;15.160;2022-08-26T09:56:25;29.00;98.00
14775;DHT22;7479;47.042;15.160;2022-08-26T10:01:28;29.40;97.60
14775;DHT22;7479;47.042;15.160;2022-08-26T10:06:24;29.80;96.40
14775;DHT22;7479;47.042;15.160;2022-08-26T10:11:25;30.10;95.60
14775;DHT22;7479;47.042;15.160;2022-08-26T10:16:24;30.30;95.80
14775;DHT22;7479;47.042;15.160;2022-08-26T10:21:25;30.20;94.80
14775;DHT22;7479;47.042;15.160;2022-08-26T10:26:24;30.60;94.80
14775;DHT22;7479;47.042;15.160;2022-08-26T10:31:27;30.90;94.60
14775;DHT22;7479;47.042;15.160;2022-08-26T10:36:36;31.10;92.70
14775;DHT22;7479;47.042;15.160;2022-08-26T10:42:05;31.30;93.30
14775;DHT22;7479;47.042;15.160;2022-08-26T10:47:11;31.80;91.10
14775;DHT22;7479;47.042;15.160;2022-08-26T10:52:15;32.30;89.30
14775;DHT22;7479;47.042;15.160;2022-08-26T10:57:13;32.40;85.70
14775;DHT22;7479;47.042;15.160;2022-08-26T11:02:12;32.40;86.10
14775;DHT22;7479;47.042;15.160;2022-08-26T11:07:36;32.80;84.60
14775;DHT22;7479;47.042;15.160;2022-08-26T11:12:49;32.90;79.40
14775;DHT22;7479;47.042;15.160;2022-08-26T11:17:56;33.20;78.00
14775;DHT22;7479;47.042;15.160;2022-08-26T11:22:54;33.70;78.40
14775;DHT22;7479;47.042;15.160;2022-08-26T11:27:55;33.50;74.20
14775;DHT22;7479;47.042;15.160;2022-08-26T11:32:52;33.80;73.40
14775;DHT22;7479;47.042;15.160;2022-08-26T11:37:49;33.90;70.60
14775;DHT22;7479;47.042;15.160;2022-08-26T11:42:46;34.20;72.50
14775;DHT22;7479;47.042;15.160;2022-08-26T11:47:43;33.80;69.50
14775;DHT22;7479;47.042;15.160;2022-08-26T11:52:41;33.70;71.90
14775;DHT22;7479;47.042;15.160;2022-08-26T11:57:45;33.60;69.00
14775;DHT22;7479;47.042;15.160;2022-08-26T12:02:41;34.00;68.50
14775;DHT22;7479;47.042;15.160;2022-08-26T12:07:36;34.00;69.20
14775;DHT22;7479;47.042;15.160;2022-08-26T12:12:35;34.20;66.80
14775;DHT22;7479;47.042;15.160;2022-08-26T12:17:31;34.40;69.70
14775;DHT22;7479;47.042;15.160;2022-08-26T12:22:26;34.20;67.50
14775;DHT22;7479;47.042;15.160;2022-08-26T12:27:22;33.60;71.60
14775;DHT22;7479;47.042;15.160;2022-08-26T12:32:17;33.80;71.40
14775;DHT22;7479;47.042;15.160;2022-08-26T12:37:13;34.40;70.80
14775;DHT22;7479;47.042;15.160;2022-08-26T12:42:22;35.10;67.60
14775;DHT22;7479;47.042;15.160;2022-08-26T12:47:23;35.00;68.70
14775;DHT22;7479;47.042;15.160;2022-08-26T12:52:40;34.30;68.80
14775;DHT22;7479;47.042;15.160;2022-08-26T12:57:36;34.20;68.10
14775;DHT22;7479;47.042;15.160;2022-08-26T13:02:34;34.20;68.30
14775;DHT22;7479;47.042;15.160;2022-08-26T13:07:28;34.00;67.70
14775;DHT22;7479;47.042;15.160;2022-08-26T13:12:26;33.30;69.40
14775;DHT22;7479;47.042;15.160;2022-08-26T13:17:20;32.80;71.00
14775;DHT22;7479;47.042;15.160;2022-08-26T13:22:15;33.60;71.10
14775;DHT22;7479;47.042;15.160;2022-08-26T13:27:13;34.10;70.20
14775;DHT22;7479;47.042;15.160;2022-08-26T13:32:10;34.20;67.70
14775;DHT22;7479;47.042;15.160;2022-08-26T13:37:04;34.00;68.20
14775;DHT22;7479;47.042;15.160;2022-08-26T13:41:57;33.90;69.00
14775;DHT22;7479;47.042;15.160;2022-08-26T13:46:51;34.80;66.50
14775;DHT22;7479;47.042;15.160;2022-08-26T13:51:46;34.20;67.90
14775;DHT22;7479;47.042;15.160;2022-08-26T13:56:39;33.20;69.70
14775;DHT22;7479;47.042;15.160;2022-08-26T14:01:34;32.60;69.70
14775;DHT22;7479;47.042;15.160;2022-08-26T14:06:30;31.90;70.70
14775;DHT22;7479;47.042;15.160;2022-08-26T14:11:25;31.50;71.90
14775;DHT22;7479;47.042;15.160;2022-08-26T14:16:41;31.20;72.40
14775;DHT22;7479;47.042;15.160;2022-08-26T14:21:51;31.50;73.40
14775;DHT22;7479;47.042;15.160;2022-08-26T14:26:46;31.70;72.10
14775;DHT22;7479;47.042;15.160;2022-08-26T14:31:40;31.50;73.20
14775;DHT22;7479;47.042;15.160;2022-08-26T14:36:34;31.60;73.80
14775;DHT22;7479;47.042;15.160;2022-08-26T14:41:29;32.40;72.40
14775;DHT22;7479;47.042;15.160;2022-08-26T14:46:26;33.50;69.20
14775;DHT22;7479;47.042;15.160;2022-08-26T14:51:21;34.30;66.60
14775;DHT22;7479;47.042;15.160;2022-08-26T14:56:15;34.10;66.80
14775;DHT22;7479;47.042;15.160;2022-08-26T15:01:09;33.70;68.20
14775;DHT22;7479;47.042;15.160;2022-08-26T15:06:05;33.30;68.10
14775;DHT22;7479;47.042;15.160;2022-08-26T15:11:00;33.10;69.10
14775;DHT22;7479;47.042;15.160;2022-08-26T15:15:53;32.70;70.50
14775;DHT22;7479;47.042;15.160;2022-08-26T15:20:47;32.40;71.40
14775;DHT22;7479;47.042;15.160;2022-08-26T15:25:43;33.20;70.40
14775;DHT22;7479;47.042;15.160;2022-08-26T15:30:37;34.00;69.00
14775;DHT22;7479;47.042;15.160;2022-08-26T15:35:30;34.50;68.00
14775;DHT22;7479;47.042;15.160;2022-08-26T15:40:31;34.90;65.80
14775;DHT22;7479;47.042;15.160;2022-08-26T15:45:26;35.10;64.90
14775;DHT22;7479;47.042;15.160;2022-08-26T15:50:20;35.50;64.20
14775;DHT22;7479;47.042;15.160;2022-08-26T15:55:13;36.60;62.20
14775;DHT22;7479;47.042;15.160;2022-08-26T16:00:08;37.70;59.50
14775;DHT22;7479;47.042;15.160;2022-08-26T16:05:08;39.20;57.50
14775;DHT22;7479;47.042;15.160;2022-08-26T16:10:02;40.20;55.30
14775;DHT22;7479;47.042;15.160;2022-08-26T16:14:55;39.30;54.50
14775;DHT22;7479;47.042;15.160;2022-08-26T16:19:49;35.50;59.60
14775;DHT22;7479;47.042;15.160;2022-08-26T16:24:44;33.10;66.20
14775;DHT22;7479;47.042;15.160;2022-08-26T16:29:38;31.90;71.80
14775;DHT22;7479;47.042;15.160;2022-08-26T16:34:32;31.00;75.70
14775;DHT22;7479;47.042;15.160;2022-08-26T16:39:26;30.60;77.50
14775;DHT22;7479;47.042;15.160;2022-08-26T16:44:21;30.10;80.90
14775;DHT22;7479;47.042;15.160;2022-08-26T16:49:18;29.70;82.70
14775;DHT22;7479;47.042;15.160;2022-08-26T16:54:12;29.40;84.50
14775;DHT22;7479;47.042;15.160;2022-08-26T16:59:07;29.00;85.80
14775;DHT22;7479;47.042;15.160;2022-08-26T17:04:04;28.80;86.40
14775;DHT22;7479;47.042;15.160;2022-08-26T17:08:58;28.50;88.70
14775;DHT22;7479;47.042;15.160;2022-08-26T17:13:51;28.30;90.20
14775;DHT22;7479;47.042;15.160;2022-08-26T17:18:45;28.10;90.90
14775;DHT22;7479;47.042;15.160;2022-08-26T17:23:42;27.80;91.80
14775;DHT22;7479;47.042;15.160;2022-08-26T17:28:36;27.70;92.50
14775;DHT22;7479;47.042;15.160;2022-08-26T17:33:30;27.40;93.20
14775;DHT22;7479;47.042;15.160;2022-08-26T17:38:24;27.10;93.80
14775;DHT22;7479;47.042;15.160;2022-08-26T17:43:21;26.90;94.70
14775;DHT22;7479;47.042;15.160;2022-08-26T17:48:15;26.70;95.40
14775;DHT22;7479;47.042;15.160;2022-08-26T17:53:09;26.50;96.10
14775;DHT22;7479;47.042;15.160;2022-08-26T17:58:09;26.30;96.30
14775;DHT22;7479;47.042;15.160;2022-08-26T18:03:07;26.20;96.70
14775;DHT22;7479;47.042;15.160;2022-08-26T18:08:01;26.00;97.00
14775;DHT22;7479;47.042;15.160;2022-08-26T18:12:55;25.90;97.40
14775;DHT22;7479;47.042;15.160;2022-08-26T18:17:49;25.70;98.00
14775;DHT22;7479;47.042;15.160;2022-08-26T18:22:45;25.40;98.50
14775;DHT22;7479;47.042;15.160;2022-08-26T18:27:39;25.30;99.00
14775;DHT22;7479;47.042;15.160;2022-08-26T18:32:33;25.30;99.90
14775;DHT22;7479;47.042;15.160;2022-08-26T18:37:27;25.20;99.90
14775;DHT22;7479;47.042;15.160;2022-08-26T18:42:24;25.00;99.90
14775;DHT22;7479;47.042;15.160;2022-08-26T18:47:17;24.80;99.90
14775;DHT22;7479;47.042;15.160;2022-08-26T18:52:11;24.70;99.90
14775;DHT22;7479;47.042;15.160;2022-08-26T18:57:05;24.50;99.90
14775;DHT22;7479;47.042;15.160;2022-08-26T19:02:00;24.20;99.90
14775;DHT22;7479;47.042;15.160;2022-08-26T19:06:54;24.00;99.90
14775;DHT22;7479;47.042;15.160;2022-08-26T19:11:48;23.90;99.90
14775;DHT22;7479;47.042;15.160;2022-08-26T19:16:44;23.90;99.90
14775;DHT22;7479;47.042;15.160;2022-08-26T19:21:41;23.80;99.90
14775;DHT22;7479;47.042;15.160;2022-08-26T19:26:35;23.80;99.90
14775;DHT22;7479;47.042;15.160;2022-08-26T19:31:30;23.70;99.90
14775;DHT22;7479;47.042;15.160;2022-08-26T19:36:25;23.60;99.90
14775;DHT22;7479;47.042;15.160;2022-08-26T19:41:23;23.50;99.90
14775;DHT22;7479;47.042;15.160;2022-08-26T19:46:29;23.30;99.90
14775;DHT22;7479;47.042;15.160;2022-08-26T19:51:24;23.30;99.90
14775;DHT22;7479;47.042;15.160;2022-08-26T19:56:19;23.10;99.90
14775;DHT22;7479;47.042;15.160;2022-08-26T20:01:15;22.90;99.90
14775;DHT22;7479;47.042;15.160;2022-08-26T20:06:10;22.70;99.90
14775;DHT22;7479;47.042;15.160;2022-08-26T20:11:07;22.70;99.90
